createdAt,value
2019-02-20T00:01:03.163Z,99554.74
2019-02-20T00:03:32.595Z,99553.52
2019-02-20T00:06:02.024Z,99560.38
2019-02-20T00:08:31.466Z,99559.14
2019-02-20T00:11:00.885Z,99559.09
2019-02-20T00:13:30.326Z,99567.67
2019-02-20T00:15:59.756Z,99561.34
2019-02-20T00:18:29.200Z,99558.75
2019-02-20T00:20:58.618Z,99564.77
2019-02-20T00:23:28.058Z,99558.48
2019-02-20T00:25:57.485Z,99564.48
2019-02-20T00:28:26.923Z,99564.88
2019-02-20T00:30:56.356Z,99571.32
2019-02-20T00:33:25.793Z,99573.99
2019-02-20T00:35:55.220Z,99571.45
2019-02-20T00:38:24.667Z,99575.30
2019-02-20T00:40:54.094Z,99570.61
2019-02-20T00:43:23.535Z,99575.68
2019-02-20T00:46:00.489Z,99578.23
2019-02-20T00:48:37.287Z,99576.13
2019-02-20T00:51:10.778Z,99575.80
2019-02-20T00:53:47.816Z,99590.30
2019-02-20T00:56:17.246Z,99589.91
2019-02-20T00:58:46.689Z,99589.56
2019-02-20T01:01:16.118Z,99587.88
2019-02-20T01:03:45.580Z,99586.16
2019-02-20T01:06:15.013Z,99589.14
2019-02-20T01:08:44.439Z,99598.53
2019-02-20T01:11:13.951Z,99593.39
2019-02-20T01:13:43.377Z,99591.20
2019-02-20T01:16:12.813Z,99595.05
2019-02-20T01:18:42.237Z,99589.55
2019-02-20T01:21:11.675Z,99600.61
2019-02-20T01:23:41.106Z,99598.12
2019-02-20T01:26:10.895Z,99598.59
2019-02-20T01:28:40.321Z,99600.70
2019-02-20T01:31:09.750Z,99604.52
2019-02-20T01:33:39.180Z,99609.20
2019-02-20T01:36:08.629Z,99598.13
2019-02-20T01:38:38.067Z,99603.22
2019-02-20T01:41:07.501Z,99604.08
2019-02-20T01:43:36.926Z,99599.38
2019-02-20T01:46:06.362Z,99596.35
2019-02-20T01:48:35.797Z,99589.59
2019-02-20T01:51:05.224Z,99594.73
2019-02-20T01:53:34.660Z,99590.47
2019-02-20T01:56:04.094Z,99594.33
2019-02-20T01:58:33.521Z,99587.53
2019-02-20T02:01:02.960Z,99590.09
2019-02-20T02:03:32.381Z,99580.24
2019-02-20T02:06:01.824Z,99581.98
2019-02-20T02:08:31.326Z,99584.11
2019-02-20T02:11:00.762Z,99585.83
2019-02-20T02:13:30.185Z,99587.98
2019-02-20T02:15:59.622Z,99584.51
2019-02-20T02:18:29.051Z,99581.13
2019-02-20T02:20:58.487Z,99587.50
2019-02-20T02:23:27.918Z,99588.77
2019-02-20T02:25:57.357Z,99583.69
2019-02-20T02:28:27.125Z,99588.77
2019-02-20T02:30:56.563Z,99583.69
2019-02-20T02:33:25.989Z,99584.97
2019-02-20T02:35:55.424Z,99592.63
2019-02-20T02:38:24.861Z,99587.91
2019-02-20T02:40:54.300Z,99586.17
2019-02-20T02:43:23.728Z,99585.38
2019-02-20T02:45:53.164Z,99587.08
2019-02-20T02:48:22.603Z,99582.80
2019-02-20T02:50:52.034Z,99578.49
2019-02-20T02:53:30.273Z,99582.38
2019-02-20T02:55:52.633Z,99575.59
2019-02-20T02:58:22.060Z,99579.00
2019-02-20T03:00:51.493Z,99573.94
2019-02-20T03:03:20.922Z,99570.12
2019-02-20T03:05:50.360Z,99575.66
2019-02-20T03:08:19.785Z,99582.08
2019-02-20T03:10:49.214Z,99585.45
2019-02-20T03:13:18.647Z,99584.21
2019-02-20T03:15:48.096Z,99587.17
2019-02-20T03:18:17.532Z,99580.33
2019-02-20T03:20:46.986Z,99582.08
2019-02-20T03:23:16.419Z,99586.31
2019-02-20T03:25:46.616Z,99578.68
2019-02-20T03:28:16.044Z,99577.86
2019-02-20T03:30:45.481Z,99573.14
2019-02-20T03:33:14.916Z,99576.54
2019-02-20T03:35:44.363Z,99578.66
2019-02-20T03:38:13.851Z,99577.41
2019-02-20T03:40:43.292Z,99577.82
2019-02-20T03:43:12.713Z,99579.13
2019-02-20T03:45:42.154Z,99580.80
2019-02-20T03:48:11.577Z,99574.02
2019-02-20T03:50:41.008Z,99577.44
2019-02-20T03:53:10.440Z,99581.25
2019-02-20T03:55:39.948Z,99585.11
2019-02-20T03:58:09.384Z,99583.83
2019-02-20T04:00:40.133Z,99582.98
2019-02-20T04:03:09.597Z,99580.45
2019-02-20T04:05:39.032Z,99587.23
2019-02-20T04:08:08.460Z,99585.12
2019-02-20T04:10:37.897Z,99585.55
2019-02-20T04:13:07.327Z,99588.52
2019-02-20T04:15:36.856Z,99587.65
2019-02-20T04:18:06.281Z,99592.34
2019-02-20T04:20:35.730Z,99594.06
2019-02-20T04:23:05.154Z,99594.89
2019-02-20T04:25:34.583Z,99592.33
2019-02-20T04:28:04.019Z,99575.33
2019-02-20T04:30:33.456Z,99591.08
2019-02-20T04:33:02.873Z,99590.22
2019-02-20T04:35:32.604Z,99590.63
2019-02-20T04:38:02.038Z,99597.45
2019-02-20T04:40:31.461Z,99597.86
2019-02-20T04:43:00.901Z,99610.18
2019-02-20T04:45:30.331Z,99605.08
2019-02-20T04:47:59.775Z,99608.06
2019-02-20T04:50:29.189Z,99610.63
2019-02-20T04:52:58.631Z,99604.64
2019-02-20T04:55:28.063Z,99602.10
2019-02-20T04:58:15.741Z,99607.20
2019-02-20T05:00:45.169Z,99605.07
2019-02-20T05:03:14.681Z,99603.80
2019-02-20T05:05:44.197Z,99602.95
2019-02-20T05:08:13.627Z,99607.64
2019-02-20T05:10:43.058Z,99611.03
2019-02-20T05:13:12.495Z,99608.47
2019-02-20T05:15:41.930Z,99608.06
2019-02-20T05:18:11.381Z,99613.60
2019-02-20T05:20:40.791Z,99609.34
2019-02-20T05:23:10.237Z,99608.48
2019-02-20T05:25:39.664Z,99614.00
2019-02-20T05:28:09.102Z,99609.33
2019-02-20T05:30:38.582Z,99602.94
2019-02-20T05:33:07.990Z,99614.86
2019-02-20T05:35:37.474Z,99622.09
2019-02-20T05:38:06.924Z,99616.55
2019-02-20T05:40:36.345Z,99611.48
2019-02-20T05:43:05.786Z,99620.40
2019-02-20T05:45:35.216Z,99613.18
2019-02-20T05:48:04.977Z,99622.95
2019-02-20T05:50:34.402Z,99620.38
2019-02-20T05:53:03.849Z,99633.16
2019-02-20T05:55:33.264Z,99624.22
2019-02-20T05:58:02.710Z,99627.20
2019-02-20T06:00:32.148Z,99627.19
2019-02-20T06:03:01.578Z,99618.65
2019-02-20T06:05:31.006Z,99623.77
2019-02-20T06:08:00.449Z,99631.01
2019-02-20T06:10:29.877Z,99628.03
2019-02-20T06:12:59.328Z,99627.18
2019-02-20T06:15:28.750Z,99630.59
2019-02-20T06:17:58.197Z,99626.33
2019-02-20T06:20:27.627Z,99630.59
2019-02-20T06:22:57.070Z,99634.83
2019-02-20T06:25:26.516Z,99644.20
2019-02-20T06:27:55.969Z,99646.73
2019-02-20T06:30:25.510Z,99654.39
2019-02-20T06:32:54.940Z,99657.80
2019-02-20T06:35:24.371Z,99654.84
2019-02-20T06:37:53.817Z,99661.20
2019-02-20T06:40:24.106Z,99664.19
2019-02-20T06:42:53.549Z,99666.31
2019-02-20T06:45:22.973Z,99669.30
2019-02-20T06:47:52.406Z,99672.69
2019-02-20T06:50:21.845Z,99669.30
2019-02-20T06:52:51.283Z,99676.50
2019-02-20T06:55:20.717Z,99680.75
2019-02-20T06:57:50.158Z,99676.08
2019-02-20T07:00:19.599Z,99671.86
2019-02-20T07:02:49.038Z,99674.39
2019-02-20T07:05:34.058Z,99676.95
2019-02-20T07:08:44.252Z,99678.20
2019-02-20T07:11:53.537Z,99683.31
2019-02-20T07:14:27.668Z,99685.02
2019-02-20T07:17:16.444Z,99680.33
2019-02-20T07:19:59.468Z,99691.41
2019-02-20T07:22:45.137Z,99696.52
2019-02-20T07:25:24.991Z,99699.46
2019-02-20T07:28:37.148Z,99694.38
2019-02-20T07:31:06.569Z,99701.60
2019-02-20T07:33:36.010Z,99700.32
2019-02-20T07:36:05.454Z,99697.76
2019-02-20T07:38:34.880Z,99696.92
2019-02-20T07:41:04.324Z,99697.30
2019-02-20T07:43:33.765Z,99697.28
2019-02-20T07:46:03.200Z,99698.58
2019-02-20T07:48:32.639Z,99697.70
2019-02-20T07:51:02.082Z,99707.91
2019-02-20T07:53:31.582Z,99694.70
2019-02-20T07:56:01.023Z,99689.13
2019-02-20T07:58:30.816Z,99699.34
2019-02-20T08:01:00.363Z,99705.28
2019-02-20T08:03:29.910Z,99707.81
2019-02-20T08:05:59.330Z,99701.38
2019-02-20T08:08:28.771Z,99716.72
2019-02-20T08:10:58.209Z,99726.06
2019-02-20T08:13:27.644Z,99721.34
2019-02-20T08:15:57.091Z,99725.19
2019-02-20T08:18:26.553Z,99720.43
2019-02-20T08:20:55.995Z,99719.56
2019-02-20T08:23:25.437Z,99723.42
2019-02-20T08:25:54.906Z,99714.00
2019-02-20T08:28:24.346Z,99721.17
2019-02-20T08:30:53.794Z,99724.16
2019-02-20T08:33:23.243Z,99718.10
2019-02-20T08:35:52.676Z,99720.24
2019-02-20T08:38:22.107Z,99721.55
2019-02-20T08:40:51.555Z,99717.19
2019-02-20T08:43:20.997Z,99720.61
2019-02-20T08:45:50.455Z,99715.81
2019-02-20T08:48:19.874Z,99719.63
2019-02-20T08:50:49.324Z,99722.59
2019-02-20T08:53:18.758Z,99722.22
2019-02-20T08:55:48.197Z,99736.73
2019-02-20T08:58:17.624Z,99729.87
2019-02-20T09:00:47.069Z,99733.69
2019-02-20T09:03:16.526Z,99734.95
2019-02-20T09:05:46.058Z,99730.62
2019-02-20T09:08:15.490Z,99733.12
2019-02-20T09:10:44.945Z,99732.37
2019-02-20T09:13:14.387Z,99736.59
2019-02-20T09:15:43.823Z,99729.24
2019-02-20T09:18:13.292Z,99735.55
2019-02-20T09:20:42.728Z,99731.67
2019-02-20T09:23:12.164Z,99740.56
2019-02-20T09:25:42.011Z,99737.13
2019-02-20T09:28:11.521Z,99726.00
2019-02-20T09:30:42.589Z,99727.14
2019-02-20T09:33:12.041Z,99724.50
2019-02-20T09:35:41.476Z,99727.86
2019-02-20T09:38:10.925Z,99733.34
2019-02-20T09:40:40.436Z,99729.48
2019-02-20T09:43:09.968Z,99731.50
2019-02-20T09:45:42.080Z,99741.70
2019-02-20T09:48:10.574Z,99747.23
2019-02-20T09:50:39.994Z,99747.61
2019-02-20T09:53:09.438Z,99745.48
2019-02-20T09:55:38.881Z,99748.03
2019-02-20T09:58:08.388Z,99742.92
2019-02-20T10:00:37.815Z,99742.87
2019-02-20T10:03:07.265Z,99747.95
2019-02-20T10:05:36.703Z,99748.33
2019-02-20T10:08:06.151Z,99748.69
2019-02-20T10:10:35.591Z,99751.61
2019-02-20T10:13:05.038Z,99750.14
2019-02-20T10:15:34.474Z,99758.78
2019-02-20T10:18:03.910Z,99753.58
2019-02-20T10:20:33.344Z,99753.33
2019-02-20T10:23:02.793Z,99752.88
2019-02-20T10:25:32.242Z,99754.95
2019-02-20T10:28:01.701Z,99757.52
2019-02-20T10:30:31.137Z,99760.92
2019-02-20T10:33:00.582Z,99760.72
2019-02-20T10:35:30.345Z,99764.86
2019-02-20T10:37:59.796Z,99764.41
2019-02-20T10:40:29.229Z,99766.55
2019-02-20T10:42:58.685Z,99760.94
2019-02-20T10:45:28.114Z,99756.58
2019-02-20T10:47:57.560Z,99753.55
2019-02-20T10:50:26.998Z,99754.41
2019-02-20T10:52:56.441Z,99753.50
2019-02-20T10:55:25.903Z,99755.77
2019-02-20T10:57:55.356Z,99748.00
2019-02-20T11:00:26.596Z,99753.77
2019-02-20T11:02:56.113Z,99749.34
2019-02-20T11:05:25.656Z,99750.02
2019-02-20T11:07:55.069Z,99753.98
2019-02-20T11:10:24.877Z,99747.69
2019-02-20T11:12:54.320Z,99744.12
2019-02-20T11:15:23.750Z,99736.89
2019-02-20T11:17:53.191Z,99739.25
2019-02-20T11:20:22.623Z,99738.07
2019-02-20T11:22:52.152Z,99738.09
2019-02-20T11:25:21.731Z,99735.05
2019-02-20T11:27:51.215Z,99734.78
2019-02-20T11:30:26.296Z,99734.62
2019-02-20T11:32:55.784Z,99732.31
2019-02-20T11:35:27.041Z,99731.09
2019-02-20T11:37:56.470Z,99730.19
2019-02-20T11:40:25.921Z,99725.69
2019-02-20T11:42:55.356Z,99732.00
2019-02-20T11:45:24.877Z,99729.38
2019-02-20T11:47:54.312Z,99726.72
2019-02-20T11:50:23.771Z,99727.45
2019-02-20T11:52:53.249Z,99727.00
2019-02-20T11:55:22.764Z,99725.70
2019-02-20T11:58:00.300Z,99725.22
2019-02-20T12:00:23.392Z,99718.72
2019-02-20T12:02:52.963Z,99719.06
2019-02-20T12:05:22.427Z,99717.17
2019-02-20T12:07:51.855Z,99719.41
2019-02-20T12:10:21.307Z,99729.73
2019-02-20T12:12:50.754Z,99729.16
2019-02-20T12:15:20.222Z,99722.64
2019-02-20T12:17:49.659Z,99723.31
2019-02-20T12:20:19.109Z,99718.92
2019-02-20T12:22:48.549Z,99718.63
2019-02-20T12:25:17.990Z,99720.98
2019-02-20T12:27:47.436Z,99715.30
2019-02-20T12:30:16.908Z,99711.77
2019-02-20T12:32:46.346Z,99711.42
2019-02-20T12:35:15.798Z,99711.23
2019-02-20T12:37:45.230Z,99710.87
2019-02-20T12:40:14.697Z,99711.85
2019-02-20T12:42:44.140Z,99701.23
2019-02-20T12:45:13.575Z,99704.48
2019-02-20T12:47:43.021Z,99700.17
2019-02-20T12:50:14.978Z,99702.12
2019-02-20T12:52:44.402Z,99700.54
2019-02-20T12:55:13.851Z,99701.05
2019-02-20T12:57:43.287Z,99698.84
2019-02-20T13:00:17.261Z,99698.38
2019-02-20T13:02:46.697Z,99697.98
2019-02-20T13:05:16.818Z,99693.94
2019-02-20T13:07:47.063Z,99693.86
2019-02-20T13:10:16.747Z,99686.63
2019-02-20T13:12:46.805Z,99670.02
2019-02-20T13:15:16.413Z,99674.63
2019-02-20T13:17:45.871Z,99679.22
2019-02-20T13:20:15.300Z,99682.66
2019-02-20T13:22:44.741Z,99690.73
2019-02-20T13:25:14.929Z,99682.25
2019-02-20T13:27:44.368Z,99676.28
2019-02-20T13:30:16.734Z,99680.20
2019-02-20T13:32:46.198Z,99677.90
2019-02-20T13:35:15.684Z,99678.10
2019-02-20T13:37:45.126Z,99683.55
2019-02-20T13:40:14.753Z,99676.66
2019-02-20T13:42:44.198Z,99675.73
2019-02-20T13:45:15.584Z,99676.25
2019-02-20T13:47:45.008Z,99678.88
2019-02-20T13:50:14.548Z,99676.66
2019-02-20T13:52:52.002Z,99672.28
2019-02-20T13:55:15.570Z,99676.11
2019-02-20T13:57:45.054Z,99671.48
2019-02-20T14:00:14.672Z,99676.05
2019-02-20T14:02:44.114Z,99676.16
2019-02-20T14:05:13.561Z,99679.41
2019-02-20T14:07:43.394Z,99671.24
2019-02-20T14:10:13.663Z,99674.73
2019-02-20T14:12:43.109Z,99675.48
2019-02-20T14:15:13.264Z,99675.67
2019-02-20T14:17:42.696Z,99664.77
2019-02-20T14:20:13.392Z,99672.31
2019-02-20T14:22:43.011Z,99670.23
2019-02-20T14:25:12.625Z,99669.50
2019-02-20T14:27:42.063Z,99670.42
2019-02-20T14:30:14.242Z,99668.89
2019-02-20T14:32:43.675Z,99671.66
2019-02-20T14:35:15.325Z,99670.52
2019-02-20T14:37:44.773Z,99669.75
2019-02-20T14:40:14.355Z,99673.46
2019-02-20T14:42:43.796Z,99667.90
2019-02-20T14:45:15.882Z,99668.34
2019-02-20T14:47:45.398Z,99675.19
2019-02-20T14:50:14.945Z,99669.95
2019-02-20T14:52:44.354Z,99674.40
2019-02-20T14:55:13.860Z,99675.54
2019-02-20T14:57:43.315Z,99672.70
2019-02-20T15:00:17.189Z,99674.64
2019-02-20T15:02:46.624Z,99675.59
2019-02-20T15:05:16.061Z,99673.18
2019-02-20T15:07:45.526Z,99668.59
2019-02-20T15:10:15.030Z,99673.23
2019-02-20T15:12:44.487Z,99668.36
2019-02-20T15:15:14.884Z,99672.54
2019-02-20T15:17:44.324Z,99668.72
2019-02-20T15:20:13.776Z,99664.94
2019-02-20T15:22:43.217Z,99669.28
2019-02-20T15:25:12.651Z,99673.24
2019-02-20T15:27:42.097Z,99672.52
2019-02-20T15:30:18.770Z,99675.52
2019-02-20T15:32:48.218Z,99666.51
2019-02-20T15:35:17.931Z,99664.13
2019-02-20T15:37:47.445Z,99663.09
2019-02-20T15:40:16.894Z,99666.14
2019-02-20T15:42:46.343Z,99662.16
2019-02-20T15:45:15.767Z,99664.39
2019-02-20T15:47:45.229Z,99672.80
2019-02-20T15:50:15.800Z,99667.98
2019-02-20T15:52:45.243Z,99668.63
2019-02-20T15:55:15.022Z,99662.71
2019-02-20T15:57:44.475Z,99663.27
2019-02-20T16:00:19.660Z,99666.57
2019-02-20T16:02:49.186Z,99662.62
2019-02-20T16:05:19.239Z,99664.64
2019-02-20T16:07:48.692Z,99663.91
2019-02-20T16:10:18.385Z,99671.41
2019-02-20T16:12:47.826Z,99673.45
2019-02-20T16:15:17.264Z,99667.36
2019-02-20T16:17:46.707Z,99667.48
2019-02-20T16:20:16.521Z,99663.36
2019-02-20T16:22:45.973Z,99668.05
2019-02-20T16:25:16.851Z,99668.84
2019-02-20T16:27:47.581Z,99671.30
2019-02-20T16:30:17.398Z,99672.30
2019-02-20T16:32:46.913Z,99677.64
2019-02-20T16:35:16.668Z,99670.98
2019-02-20T16:37:46.144Z,99670.33
2019-02-20T16:40:16.837Z,99670.72
2019-02-20T16:42:46.289Z,99680.17
2019-02-20T16:45:24.128Z,99678.65
2019-02-20T16:47:54.176Z,99682.33
2019-02-20T16:50:23.612Z,99684.17
2019-02-20T16:52:53.062Z,99686.49
2019-02-20T16:55:22.884Z,99689.84
2019-02-20T16:57:56.768Z,99693.06
2019-02-20T17:00:23.670Z,99698.52
2019-02-20T17:02:53.594Z,99697.49
2019-02-20T17:05:23.039Z,99707.61
2019-02-20T17:07:52.499Z,99701.03
2019-02-20T17:10:22.011Z,99712.83
2019-02-20T17:12:51.441Z,99719.92
2019-02-20T17:15:20.875Z,99724.38
2019-02-20T17:17:50.769Z,99721.19
2019-02-20T17:20:21.969Z,99723.16
2019-02-20T17:22:51.415Z,99726.33
2019-02-20T17:25:21.799Z,99732.06
2019-02-20T17:27:51.228Z,99733.08
2019-02-20T17:30:21.130Z,99737.47
2019-02-20T17:32:50.918Z,99744.16
2019-02-20T17:35:20.423Z,99749.47
2019-02-20T17:37:49.860Z,99751.80
2019-02-20T17:40:19.297Z,99755.86
2019-02-20T17:42:48.771Z,99753.28
2019-02-20T17:45:19.513Z,99752.17
2019-02-20T17:47:49.303Z,99751.23
2019-02-20T17:50:24.662Z,99756.39
2019-02-20T17:52:54.109Z,99757.15
2019-02-20T17:55:23.550Z,99757.33
2019-02-20T17:57:52.997Z,99767.31
2019-02-20T18:00:24.552Z,99762.04
2019-02-20T18:02:53.990Z,99759.80
2019-02-20T18:05:23.995Z,99761.52
2019-02-20T18:07:53.646Z,99762.55
2019-02-20T18:10:23.148Z,99766.72
2019-02-20T18:12:52.597Z,99770.17
2019-02-20T18:15:22.026Z,99766.56
2019-02-20T18:17:51.474Z,99772.27
2019-02-20T18:20:20.906Z,99778.41
2019-02-20T18:22:50.356Z,99775.60
2019-02-20T18:25:19.784Z,99773.70
2019-02-20T18:27:49.235Z,99773.94
2019-02-20T18:30:18.669Z,99778.34
2019-02-20T18:32:48.106Z,99779.24
2019-02-20T18:35:19.229Z,99777.95
2019-02-20T18:37:48.686Z,99777.80
2019-02-20T18:40:18.758Z,99778.25
2019-02-20T18:42:48.198Z,99786.23
2019-02-20T18:45:17.718Z,99791.10
2019-02-20T18:47:47.163Z,99795.69
2019-02-20T18:50:17.187Z,99790.86
2019-02-20T18:52:46.582Z,99798.69
2019-02-20T18:55:16.172Z,99797.44
2019-02-20T18:57:45.551Z,99801.33
2019-02-20T19:00:18.948Z,99804.11
2019-02-20T19:02:48.442Z,99807.28
2019-02-20T19:05:19.036Z,99803.13
2019-02-20T19:07:48.752Z,99808.46
2019-02-20T19:10:34.884Z,99808.92
2019-02-20T19:13:11.823Z,99808.52
2019-02-20T19:16:04.173Z,99812.72
2019-02-20T19:19:02.629Z,99810.73
2019-02-20T19:21:58.036Z,99816.84
2019-02-20T19:25:20.901Z,99821.24
2019-02-20T19:27:57.765Z,99822.59
2019-02-20T19:30:43.433Z,99824.12
2019-02-20T19:33:35.749Z,99826.31
2019-02-20T19:36:38.128Z,99826.88
2019-02-20T19:39:40.989Z,99834.31
2019-02-20T19:42:26.057Z,99830.08
2019-02-20T19:45:08.831Z,99841.56
2019-02-20T19:47:51.192Z,99842.19
2019-02-20T19:50:42.830Z,99845.27
2019-02-20T19:53:28.996Z,99846.94
2019-02-20T19:56:26.972Z,99860.38
2019-02-20T19:59:23.421Z,99856.16
2019-02-20T20:02:32.337Z,99855.75
2019-02-20T20:05:42.140Z,99858.29
2019-02-20T20:09:24.312Z,99857.86
2019-02-20T20:12:36.253Z,99866.78
2019-02-20T20:15:27.646Z,99863.81
2019-02-20T20:18:30.335Z,99868.61
2019-02-20T20:21:25.545Z,99870.47
2019-02-20T20:24:22.611Z,99872.67
2019-02-20T20:27:34.075Z,99876.64
2019-02-20T20:30:32.109Z,99883.05
2019-02-20T20:33:23.551Z,99886.05
2019-02-20T20:36:40.003Z,99894.20
2019-02-20T20:39:43.656Z,99894.22
2019-02-20T20:42:35.521Z,99893.75
2019-02-20T20:45:18.561Z,99902.31
2019-02-20T20:48:27.676Z,99895.94
2019-02-20T20:51:44.188Z,99897.27
2019-02-20T20:54:30.215Z,99897.26
2019-02-20T20:57:22.808Z,99894.72
2019-02-20T21:00:02.658Z,99905.47
2019-02-20T21:02:36.796Z,99906.36
2019-02-20T21:05:34.556Z,99902.52
2019-02-20T21:08:20.697Z,99898.14
2019-02-20T21:11:12.639Z,99901.52
2019-02-20T21:13:58.506Z,99901.91
2019-02-20T21:17:06.903Z,99905.82
2019-02-20T21:20:17.040Z,99910.16
2019-02-20T21:23:09.248Z,99911.03
2019-02-20T21:26:22.731Z,99903.44
2019-02-20T21:28:56.879Z,99904.28
2019-02-20T21:32:16.388Z,99907.69
2019-02-20T21:35:04.730Z,99906.39
2019-02-20T21:37:41.775Z,99909.41
2019-02-20T21:40:50.519Z,99905.16
2019-02-20T21:43:59.597Z,99906.77
2019-02-20T21:47:08.170Z,99905.50
2019-02-20T21:49:48.055Z,99899.95
2019-02-20T21:52:40.000Z,99908.99
2019-02-20T21:55:36.825Z,99911.98
2019-02-20T21:58:33.193Z,99913.19
2019-02-20T22:01:28.153Z,99910.20
2019-02-20T22:04:20.222Z,99906.03
2019-02-20T22:07:09.625Z,99914.29
2019-02-20T22:09:58.258Z,99913.05
2019-02-20T22:12:52.582Z,99918.68
2019-02-20T22:15:41.982Z,99920.40
2019-02-20T22:18:36.730Z,99916.50
2019-02-20T22:21:47.329Z,99915.23
2019-02-20T22:24:45.095Z,99916.13
2019-02-20T22:27:52.370Z,99919.66
2019-02-20T22:30:51.918Z,99922.22
2019-02-20T22:33:34.764Z,99926.48
2019-02-20T22:36:20.675Z,99921.89
2019-02-20T22:39:15.400Z,99920.18
2019-02-20T22:42:10.024Z,99921.43
2019-02-20T22:45:18.485Z,99922.26
2019-02-20T22:48:01.332Z,99914.23
2019-02-20T22:50:53.752Z,99918.05
2019-02-20T22:53:49.824Z,99915.97
2019-02-20T22:56:41.872Z,99915.53
2019-02-20T22:59:30.858Z,99916.91
2019-02-20T23:02:19.892Z,99918.67
2019-02-20T23:05:26.746Z,99926.45
2019-02-20T23:08:21.608Z,99929.06
2019-02-20T23:11:24.312Z,99933.36
2019-02-20T23:14:02.662Z,99935.88
2019-02-20T23:16:32.302Z,99939.77
2019-02-20T23:19:01.752Z,99939.33
2019-02-20T23:21:31.246Z,99938.99
2019-02-20T23:24:00.695Z,99940.23
2019-02-20T23:26:30.135Z,99939.84
2019-02-20T23:28:59.617Z,99943.74
2019-02-20T23:31:29.001Z,99942.06
2019-02-20T23:33:58.470Z,99946.75
2019-02-20T23:36:27.904Z,99953.56
2019-02-20T23:38:57.337Z,99954.84
2019-02-20T23:41:26.837Z,99952.30
2019-02-20T23:43:56.275Z,99957.85
2019-02-20T23:46:25.706Z,99953.18
2019-02-20T23:48:55.151Z,99960.44
2019-02-20T23:51:24.664Z,99954.88
2019-02-20T23:53:54.092Z,99957.05
2019-02-20T23:56:23.529Z,99960.44
2019-02-20T23:58:52.968Z,99959.58
